sensor_id;sensor_type;location;lat;lon;timestamp;temperature;humidity
13744;DHT22;6943;52.368;9.966;2022-12-18T00:01:23;-5.20;99.90
13744;DHT22;6943;52.368;9.966;2022-12-18T00:03:51;-5.20;99.90
13744;DHT22;6943;52.368;9.966;2022-12-18T00:06:17;-5.10;45.50
13744;DHT22;6943;52.368;9.966;2022-12-18T00:08:44;-5.20;1.00
13744;DHT22;6943;52.368;9.966;2022-12-18T00:11:16;-5.20;1.00
13744;DHT22;6943;52.368;9.966;2022-12-18T00:13:42;-5.20;1.00
13744;DHT22;6943;52.368;9.966;2022-12-18T00:16:13;-5.00;1.00
13744;DHT22;6943;52.368;9.966;2022-12-18T00:18:39;-5.00;1.00
13744;DHT22;6943;52.368;9.966;2022-12-18T00:21:07;-5.00;1.00
13744;DHT22;6943;52.368;9.966;2022-12-18T00:23:34;-5.00;1.00
13744;DHT22;6943;52.368;9.966;2022-12-18T00:26:01;-5.00;1.00
13744;DHT22;6943;52.368;9.966;2022-12-18T00:28:26;-4.90;1.00
13744;DHT22;6943;52.368;9.966;2022-12-18T00:31:00;-5.00;1.00
13744;DHT22;6943;52.368;9.966;2022-12-18T00:33:26;-5.10;1.00
13744;DHT22;6943;52.368;9.966;2022-12-18T00:35:52;-5.20;1.00
13744;DHT22;6943;52.368;9.966;2022-12-18T00:38:17;-5.20;1.00
13744;DHT22;6943;52.368;9.966;2022-12-18T00:40:43;-5.30;1.00
13744;DHT22;6943;52.368;9.966;2022-12-18T00:43:09;-5.30;1.00
13744;DHT22;6943;52.368;9.966;2022-12-18T00:45:34;-5.30;1.00
13744;DHT22;6943;52.368;9.966;2022-12-18T00:48:00;-5.20;1.00
13744;DHT22;6943;52.368;9.966;2022-12-18T00:50:26;-5.70;99.90
13744;DHT22;6943;52.368;9.966;2022-12-18T00:52:52;-5.80;1.00
13744;DHT22;6943;52.368;9.966;2022-12-18T00:55:17;-5.70;1.00
13744;DHT22;6943;52.368;9.966;2022-12-18T00:57:43;-5.70;1.00
13744;DHT22;6943;52.368;9.966;2022-12-18T01:00:12;-5.60;1.00
13744;DHT22;6943;52.368;9.966;2022-12-18T01:02:38;-5.60;1.00
13744;DHT22;6943;52.368;9.966;2022-12-18T01:05:04;-5.60;1.00
13744;DHT22;6943;52.368;9.966;2022-12-18T01:07:30;-5.70;1.00
13744;DHT22;6943;52.368;9.966;2022-12-18T01:09:55;-5.70;1.00
13744;DHT22;6943;52.368;9.966;2022-12-18T01:12:21;-5.70;1.00
13744;DHT22;6943;52.368;9.966;2022-12-18T01:14:46;-5.70;1.00
13744;DHT22;6943;52.368;9.966;2022-12-18T01:17:12;-5.80;1.00
13744;DHT22;6943;52.368;9.966;2022-12-18T01:19:37;-5.80;1.00
13744;DHT22;6943;52.368;9.966;2022-12-18T01:22:02;-5.80;1.00
13744;DHT22;6943;52.368;9.966;2022-12-18T01:24:28;-5.80;1.00
13744;DHT22;6943;52.368;9.966;2022-12-18T01:26:54;-5.80;1.00
13744;DHT22;6943;52.368;9.966;2022-12-18T01:29:19;-5.80;1.00
13744;DHT22;6943;52.368;9.966;2022-12-18T01:31:45;-5.90;1.00
13744;DHT22;6943;52.368;9.966;2022-12-18T01:34:10;-5.90;1.00
13744;DHT22;6943;52.368;9.966;2022-12-18T01:36:38;-5.80;1.00
13744;DHT22;6943;52.368;9.966;2022-12-18T01:39:12;-5.80;1.00
13744;DHT22;6943;52.368;9.966;2022-12-18T01:41:38;-5.90;1.00
13744;DHT22;6943;52.368;9.966;2022-12-18T01:44:53;-5.80;83.40
13744;DHT22;6943;52.368;9.966;2022-12-18T01:52:53;-5.80;1.00
13744;DHT22;6943;52.368;9.966;2022-12-18T01:55:22;-5.80;1.00
13744;DHT22;6943;52.368;9.966;2022-12-18T01:57:50;-5.80;1.00
13744;DHT22;6943;52.368;9.966;2022-12-18T02:00:19;-5.80;1.00
13744;DHT22;6943;52.368;9.966;2022-12-18T02:02:47;-5.80;1.00
13744;DHT22;6943;52.368;9.966;2022-12-18T02:05:18;-5.70;1.00
13744;DHT22;6943;52.368;9.966;2022-12-18T02:08:33;-5.60;1.00
13744;DHT22;6943;52.368;9.966;2022-12-18T02:11:02;-5.70;1.00
13744;DHT22;6943;52.368;9.966;2022-12-18T02:13:45;-5.70;1.00
13744;DHT22;6943;52.368;9.966;2022-12-18T02:16:19;-5.80;1.00
13744;DHT22;6943;52.368;9.966;2022-12-18T02:18:50;-5.80;1.00
13744;DHT22;6943;52.368;9.966;2022-12-18T02:24:33;-5.70;1.00
13744;DHT22;6943;52.368;9.966;2022-12-18T02:27:04;-5.70;1.00
13744;DHT22;6943;52.368;9.966;2022-12-18T02:29:54;-5.70;1.00
13744;DHT22;6943;52.368;9.966;2022-12-18T02:32:25;-5.70;1.00
13744;DHT22;6943;52.368;9.966;2022-12-18T02:34:54;-5.70;1.00
13744;DHT22;6943;52.368;9.966;2022-12-18T02:37:22;-5.70;1.00
13744;DHT22;6943;52.368;9.966;2022-12-18T02:39:49;-5.60;1.00
13744;DHT22;6943;52.368;9.966;2022-12-18T02:42:16;-5.70;99.90
13744;DHT22;6943;52.368;9.966;2022-12-18T02:44:51;-5.80;99.90
13744;DHT22;6943;52.368;9.966;2022-12-18T02:47:19;-5.80;99.90
13744;DHT22;6943;52.368;9.966;2022-12-18T02:55:15;-5.80;1.00
13744;DHT22;6943;52.368;9.966;2022-12-18T02:57:58;-5.70;1.00
13744;DHT22;6943;52.368;9.966;2022-12-18T03:00:43;-5.70;99.90
13744;DHT22;6943;52.368;9.966;2022-12-18T03:03:18;-5.90;99.90
13744;DHT22;6943;52.368;9.966;2022-12-18T03:05:52;-6.10;1.00
13744;DHT22;6943;52.368;9.966;2022-12-18T03:08:27;-6.20;23.10
13744;DHT22;6943;52.368;9.966;2022-12-18T03:10:59;-6.40;99.90
13744;DHT22;6943;52.368;9.966;2022-12-18T03:13:33;-6.40;1.00
13744;DHT22;6943;52.368;9.966;2022-12-18T03:16:00;-6.30;1.00
13744;DHT22;6943;52.368;9.966;2022-12-18T03:18:35;-6.30;1.00
13744;DHT22;6943;52.368;9.966;2022-12-18T03:21:05;-6.30;1.00
13744;DHT22;6943;52.368;9.966;2022-12-18T03:23:35;-6.30;99.90
13744;DHT22;6943;52.368;9.966;2022-12-18T03:26:05;-6.30;99.90
13744;DHT22;6943;52.368;9.966;2022-12-18T03:28:35;-6.30;1.00
13744;DHT22;6943;52.368;9.966;2022-12-18T03:31:03;-6.30;1.00
13744;DHT22;6943;52.368;9.966;2022-12-18T03:33:37;-6.30;99.90
13744;DHT22;6943;52.368;9.966;2022-12-18T03:36:03;-6.30;99.90
13744;DHT22;6943;52.368;9.966;2022-12-18T03:38:29;-6.40;99.90
13744;DHT22;6943;52.368;9.966;2022-12-18T03:46:35;-6.40;99.90
13744;DHT22;6943;52.368;9.966;2022-12-18T03:49:13;-6.40;99.90
13744;DHT22;6943;52.368;9.966;2022-12-18T03:51:48;-6.30;99.90
13744;DHT22;6943;52.368;9.966;2022-12-18T03:54:16;-6.30;99.90
13744;DHT22;6943;52.368;9.966;2022-12-18T03:56:48;-6.20;99.90
13744;DHT22;6943;52.368;9.966;2022-12-18T03:59:17;-6.20;99.90
13744;DHT22;6943;52.368;9.966;2022-12-18T04:01:47;-6.20;1.00
13744;DHT22;6943;52.368;9.966;2022-12-18T04:04:15;-6.20;1.00
13744;DHT22;6943;52.368;9.966;2022-12-18T04:06:42;-6.30;1.00
13744;DHT22;6943;52.368;9.966;2022-12-18T04:09:08;-6.30;88.60
13744;DHT22;6943;52.368;9.966;2022-12-18T04:11:34;-6.30;99.90
13744;DHT22;6943;52.368;9.966;2022-12-18T04:14:00;-6.30;99.90
13744;DHT22;6943;52.368;9.966;2022-12-18T04:16:26;-6.20;99.90
13744;DHT22;6943;52.368;9.966;2022-12-18T04:18:52;-6.20;54.40
13744;DHT22;6943;52.368;9.966;2022-12-18T04:21:18;-5.90;1.00
13744;DHT22;6943;52.368;9.966;2022-12-18T04:23:43;-6.10;1.00
13744;DHT22;6943;52.368;9.966;2022-12-18T04:26:09;-6.10;1.00
13744;DHT22;6943;52.368;9.966;2022-12-18T04:28:34;-6.20;1.00
13744;DHT22;6943;52.368;9.966;2022-12-18T04:31:00;-6.20;1.00
13744;DHT22;6943;52.368;9.966;2022-12-18T04:33:25;-6.20;1.00
13744;DHT22;6943;52.368;9.966;2022-12-18T04:35:51;-6.20;1.00
13744;DHT22;6943;52.368;9.966;2022-12-18T04:38:16;-6.20;1.00
13744;DHT22;6943;52.368;9.966;2022-12-18T04:40:42;-6.30;1.00
13744;DHT22;6943;52.368;9.966;2022-12-18T04:43:08;-6.40;1.00
13744;DHT22;6943;52.368;9.966;2022-12-18T04:45:34;-6.50;1.00
13744;DHT22;6943;52.368;9.966;2022-12-18T04:48:01;-6.60;2.80
13744;DHT22;6943;52.368;9.966;2022-12-18T04:50:27;-6.70;99.90
13744;DHT22;6943;52.368;9.966;2022-12-18T04:52:52;-6.60;99.90
13744;DHT22;6943;52.368;9.966;2022-12-18T04:55:18;-6.60;1.00
13744;DHT22;6943;52.368;9.966;2022-12-18T04:57:44;-6.60;99.90
13744;DHT22;6943;52.368;9.966;2022-12-18T05:00:09;-6.60;99.90
13744;DHT22;6943;52.368;9.966;2022-12-18T05:02:35;-6.50;99.90
13744;DHT22;6943;52.368;9.966;2022-12-18T05:05:01;-6.40;99.90
13744;DHT22;6943;52.368;9.966;2022-12-18T05:07:26;-6.40;99.90
13744;DHT22;6943;52.368;9.966;2022-12-18T05:09:52;-6.30;99.90
13744;DHT22;6943;52.368;9.966;2022-12-18T05:12:17;-6.20;99.90
13744;DHT22;6943;52.368;9.966;2022-12-18T05:14:43;-6.20;1.00
13744;DHT22;6943;52.368;9.966;2022-12-18T05:17:09;-6.10;1.00
13744;DHT22;6943;52.368;9.966;2022-12-18T05:19:34;-6.10;1.00
13744;DHT22;6943;52.368;9.966;2022-12-18T05:22:00;-6.00;1.00
13744;DHT22;6943;52.368;9.966;2022-12-18T05:24:26;-6.00;1.00
13744;DHT22;6943;52.368;9.966;2022-12-18T05:26:52;-6.00;1.00
13744;DHT22;6943;52.368;9.966;2022-12-18T05:29:17;-6.00;1.00
13744;DHT22;6943;52.368;9.966;2022-12-18T05:31:43;-6.10;1.00
13744;DHT22;6943;52.368;9.966;2022-12-18T05:34:08;-6.10;1.00
13744;DHT22;6943;52.368;9.966;2022-12-18T05:36:34;-6.10;1.00
13744;DHT22;6943;52.368;9.966;2022-12-18T05:38:59;-6.10;1.00
13744;DHT22;6943;52.368;9.966;2022-12-18T05:41:25;-6.10;1.00
13744;DHT22;6943;52.368;9.966;2022-12-18T05:43:51;-6.10;1.00
13744;DHT22;6943;52.368;9.966;2022-12-18T05:46:17;-6.10;1.00
13744;DHT22;6943;52.368;9.966;2022-12-18T05:48:44;-6.20;1.00
13744;DHT22;6943;52.368;9.966;2022-12-18T05:51:17;-6.20;1.00
13744;DHT22;6943;52.368;9.966;2022-12-18T05:53:43;-6.20;1.00
13744;DHT22;6943;52.368;9.966;2022-12-18T05:56:15;-6.30;1.00
13744;DHT22;6943;52.368;9.966;2022-12-18T05:58:41;-6.30;1.00
13744;DHT22;6943;52.368;9.966;2022-12-18T06:01:17;-6.30;1.00
13744;DHT22;6943;52.368;9.966;2022-12-18T06:03:43;-6.40;1.00
13744;DHT22;6943;52.368;9.966;2022-12-18T06:06:17;-6.40;1.00
13744;DHT22;6943;52.368;9.966;2022-12-18T06:08:43;-6.10;1.00
13744;DHT22;6943;52.368;9.966;2022-12-18T06:11:09;-6.40;1.00
13744;DHT22;6943;52.368;9.966;2022-12-18T06:13:35;-6.30;1.00
13744;DHT22;6943;52.368;9.966;2022-12-18T06:16:05;-6.20;1.00
13744;DHT22;6943;52.368;9.966;2022-12-18T06:18:31;-6.20;99.90
13744;DHT22;6943;52.368;9.966;2022-12-18T06:20:57;-6.30;99.90
13744;DHT22;6943;52.368;9.966;2022-12-18T06:23:23;-6.40;99.90
13744;DHT22;6943;52.368;9.966;2022-12-18T06:25:48;-6.40;99.90
13744;DHT22;6943;52.368;9.966;2022-12-18T06:28:14;-6.50;1.00
13744;DHT22;6943;52.368;9.966;2022-12-18T06:30:43;-6.60;1.00
13744;DHT22;6943;52.368;9.966;2022-12-18T06:33:09;-6.60;1.00
13744;DHT22;6943;52.368;9.966;2022-12-18T06:35:34;-6.60;1.00
13744;DHT22;6943;52.368;9.966;2022-12-18T06:38:02;-6.60;1.00
13744;DHT22;6943;52.368;9.966;2022-12-18T06:40:28;-6.60;1.00
13744;DHT22;6943;52.368;9.966;2022-12-18T06:42:53;-6.40;1.00
13744;DHT22;6943;52.368;9.966;2022-12-18T06:45:19;-6.80;1.00
13744;DHT22;6943;52.368;9.966;2022-12-18T06:47:44;-6.90;1.00
13744;DHT22;6943;52.368;9.966;2022-12-18T06:50:10;-6.90;1.00
13744;DHT22;6943;52.368;9.966;2022-12-18T06:52:36;-6.90;1.00
13744;DHT22;6943;52.368;9.966;2022-12-18T06:55:02;-7.00;99.90
13744;DHT22;6943;52.368;9.966;2022-12-18T06:57:28;-7.00;99.90
13744;DHT22;6943;52.368;9.966;2022-12-18T06:59:54;-6.90;99.90
13744;DHT22;6943;52.368;9.966;2022-12-18T07:02:19;-6.90;99.90
13744;DHT22;6943;52.368;9.966;2022-12-18T07:04:45;-6.90;99.90
13744;DHT22;6943;52.368;9.966;2022-12-18T07:07:10;-6.80;99.90
13744;DHT22;6943;52.368;9.966;2022-12-18T07:09:36;-6.80;92.20
13744;DHT22;6943;52.368;9.966;2022-12-18T07:12:01;-6.80;1.00
13744;DHT22;6943;52.368;9.966;2022-12-18T07:14:27;-6.90;1.00
13744;DHT22;6943;52.368;9.966;2022-12-18T07:16:53;-6.80;1.00
13744;DHT22;6943;52.368;9.966;2022-12-18T07:19:19;-6.80;1.00
13744;DHT22;6943;52.368;9.966;2022-12-18T07:21:44;-6.90;1.00
13744;DHT22;6943;52.368;9.966;2022-12-18T07:24:10;-6.90;1.00
13744;DHT22;6943;52.368;9.966;2022-12-18T07:26:35;-6.90;1.00
13744;DHT22;6943;52.368;9.966;2022-12-18T07:29:01;-6.90;1.00
13744;DHT22;6943;52.368;9.966;2022-12-18T07:31:26;-6.90;1.00
13744;DHT22;6943;52.368;9.966;2022-12-18T07:33:52;-6.90;1.00
13744;DHT22;6943;52.368;9.966;2022-12-18T07:36:18;-6.90;1.00
13744;DHT22;6943;52.368;9.966;2022-12-18T07:38:46;-6.80;1.00
13744;DHT22;6943;52.368;9.966;2022-12-18T07:41:13;-6.50;1.00
13744;DHT22;6943;52.368;9.966;2022-12-18T07:43:40;-6.10;99.90
13744;DHT22;6943;52.368;9.966;2022-12-18T07:46:06;-6.00;1.00
13744;DHT22;6943;52.368;9.966;2022-12-18T07:48:32;-5.70;1.00
13744;DHT22;6943;52.368;9.966;2022-12-18T07:51:05;-5.70;1.00
13744;DHT22;6943;52.368;9.966;2022-12-18T07:53:32;-5.50;1.00
13744;DHT22;6943;52.368;9.966;2022-12-18T07:55:59;-5.20;99.90
13744;DHT22;6943;52.368;9.966;2022-12-18T07:58:26;-4.80;1.00
13744;DHT22;6943;52.368;9.966;2022-12-18T08:00:51;-4.70;1.00
13744;DHT22;6943;52.368;9.966;2022-12-18T08:03:18;-4.80;1.00
13744;DHT22;6943;52.368;9.966;2022-12-18T08:05:43;-4.70;1.00
13744;DHT22;6943;52.368;9.966;2022-12-18T08:08:09;-4.50;1.00
13744;DHT22;6943;52.368;9.966;2022-12-18T08:10:34;-4.30;1.00
13744;DHT22;6943;52.368;9.966;2022-12-18T08:13:00;-4.20;1.00
13744;DHT22;6943;52.368;9.966;2022-12-18T08:15:25;-4.10;1.00
13744;DHT22;6943;52.368;9.966;2022-12-18T08:17:51;-4.10;1.00
13744;DHT22;6943;52.368;9.966;2022-12-18T08:20:17;-4.00;1.00
13744;DHT22;6943;52.368;9.966;2022-12-18T08:22:43;-4.20;1.00
13744;DHT22;6943;52.368;9.966;2022-12-18T08:25:09;-4.60;1.00
13744;DHT22;6943;52.368;9.966;2022-12-18T08:27:35;-4.90;32.00
13744;DHT22;6943;52.368;9.966;2022-12-18T08:30:01;-5.00;99.90
13744;DHT22;6943;52.368;9.966;2022-12-18T08:32:27;-4.80;99.90
13744;DHT22;6943;52.368;9.966;2022-12-18T08:34:53;-4.50;99.90
13744;DHT22;6943;52.368;9.966;2022-12-18T08:37:18;-4.00;1.00
13744;DHT22;6943;52.368;9.966;2022-12-18T08:39:44;-3.40;1.00
13744;DHT22;6943;52.368;9.966;2022-12-18T08:42:10;-2.80;1.00
13744;DHT22;6943;52.368;9.966;2022-12-18T08:44:54;-2.30;1.00
13744;DHT22;6943;52.368;9.966;2022-12-18T08:47:19;-1.90;1.00
13744;DHT22;6943;52.368;9.966;2022-12-18T08:49:45;-1.80;1.00
13744;DHT22;6943;52.368;9.966;2022-12-18T08:52:10;-1.30;99.90
13744;DHT22;6943;52.368;9.966;2022-12-18T08:54:36;-1.40;99.90
13744;DHT22;6943;52.368;9.966;2022-12-18T08:57:02;-1.50;99.90
13744;DHT22;6943;52.368;9.966;2022-12-18T08:59:28;-1.30;1.00
13744;DHT22;6943;52.368;9.966;2022-12-18T09:01:54;-0.90;99.90
13744;DHT22;6943;52.368;9.966;2022-12-18T09:04:20;-0.70;99.90
13744;DHT22;6943;52.368;9.966;2022-12-18T09:06:46;-0.90;99.90
13744;DHT22;6943;52.368;9.966;2022-12-18T09:09:12;-1.00;99.90
13744;DHT22;6943;52.368;9.966;2022-12-18T09:11:37;-1.30;99.90
13744;DHT22;6943;52.368;9.966;2022-12-18T09:14:03;-1.40;1.00
13744;DHT22;6943;52.368;9.966;2022-12-18T09:16:29;-1.10;1.00
13744;DHT22;6943;52.368;9.966;2022-12-18T09:18:55;-0.80;99.90
13744;DHT22;6943;52.368;9.966;2022-12-18T09:21:25;-0.60;99.90
13744;DHT22;6943;52.368;9.966;2022-12-18T09:23:52;-0.60;99.90
13744;DHT22;6943;52.368;9.966;2022-12-18T09:26:18;-0.50;99.90
13744;DHT22;6943;52.368;9.966;2022-12-18T09:28:44;-1.30;1.00
13744;DHT22;6943;52.368;9.966;2022-12-18T09:31:11;-1.30;1.00
13744;DHT22;6943;52.368;9.966;2022-12-18T09:33:37;-1.50;1.00
13744;DHT22;6943;52.368;9.966;2022-12-18T09:36:05;-1.70;1.00
13744;DHT22;6943;52.368;9.966;2022-12-18T09:38:31;-1.80;1.00
13744;DHT22;6943;52.368;9.966;2022-12-18T09:41:17;-1.90;1.00
13744;DHT22;6943;52.368;9.966;2022-12-18T09:43:51;-1.90;1.00
13744;DHT22;6943;52.368;9.966;2022-12-18T09:46:30;-1.90;1.00
13744;DHT22;6943;52.368;9.966;2022-12-18T09:49:00;-1.90;1.00
13744;DHT22;6943;52.368;9.966;2022-12-18T09:51:37;-1.90;1.00
13744;DHT22;6943;52.368;9.966;2022-12-18T09:54:07;-1.80;1.00
13744;DHT22;6943;52.368;9.966;2022-12-18T09:56:40;-1.90;1.00
13744;DHT22;6943;52.368;9.966;2022-12-18T09:59:25;-2.10;1.00
13744;DHT22;6943;52.368;9.966;2022-12-18T10:01:52;-2.30;1.00
13744;DHT22;6943;52.368;9.966;2022-12-18T10:04:17;-2.40;39.10
13744;DHT22;6943;52.368;9.966;2022-12-18T10:07:03;-2.60;99.90
13744;DHT22;6943;52.368;9.966;2022-12-18T10:09:32;-2.60;99.90
13744;DHT22;6943;52.368;9.966;2022-12-18T10:23:16;-2.40;1.00
13744;DHT22;6943;52.368;9.966;2022-12-18T10:26:07;-2.30;1.00
13744;DHT22;6943;52.368;9.966;2022-12-18T10:28:36;-2.10;99.90
13744;DHT22;6943;52.368;9.966;2022-12-18T10:31:01;-2.20;99.90
13744;DHT22;6943;52.368;9.966;2022-12-18T10:33:31;-2.20;99.90
13744;DHT22;6943;52.368;9.966;2022-12-18T10:35:57;-2.10;99.90
13744;DHT22;6943;52.368;9.966;2022-12-18T10:38:28;-2.00;99.90
13744;DHT22;6943;52.368;9.966;2022-12-18T10:40:58;-2.10;99.90
13744;DHT22;6943;52.368;9.966;2022-12-18T10:43:30;-2.10;99.90
13744;DHT22;6943;52.368;9.966;2022-12-18T10:46:20;-2.10;99.90
13744;DHT22;6943;52.368;9.966;2022-12-18T10:51:23;-2.30;99.90
13744;DHT22;6943;52.368;9.966;2022-12-18T10:53:59;-2.20;99.90
13744;DHT22;6943;52.368;9.966;2022-12-18T10:56:27;-2.10;99.90
13744;DHT22;6943;52.368;9.966;2022-12-18T10:59:05;-1.90;99.90
13744;DHT22;6943;52.368;9.966;2022-12-18T11:01:54;-1.70;99.90
13744;DHT22;6943;52.368;9.966;2022-12-18T11:04:25;-1.80;92.40
13744;DHT22;6943;52.368;9.966;2022-12-18T11:07:04;-1.80;99.90
13744;DHT22;6943;52.368;9.966;2022-12-18T11:09:32;-1.80;93.40
13744;DHT22;6943;52.368;9.966;2022-12-18T11:12:21;-1.90;1.00
13744;DHT22;6943;52.368;9.966;2022-12-18T11:14:49;-1.90;95.50
13744;DHT22;6943;52.368;9.966;2022-12-18T11:17:20;-2.10;99.90
13744;DHT22;6943;52.368;9.966;2022-12-18T11:19:58;-2.00;99.90
13744;DHT22;6943;52.368;9.966;2022-12-18T11:22:30;-2.00;99.90
13744;DHT22;6943;52.368;9.966;2022-12-18T11:24:58;-1.80;99.90
13744;DHT22;6943;52.368;9.966;2022-12-18T11:27:25;-1.80;99.90
13744;DHT22;6943;52.368;9.966;2022-12-18T11:29:51;-1.80;99.90
13744;DHT22;6943;52.368;9.966;2022-12-18T11:32:38;-1.80;99.90
13744;DHT22;6943;52.368;9.966;2022-12-18T11:35:19;-1.70;99.90
13744;DHT22;6943;52.368;9.966;2022-12-18T11:37:50;-1.60;45.50
13744;DHT22;6943;52.368;9.966;2022-12-18T11:40:22;-1.50;99.90
13744;DHT22;6943;52.368;9.966;2022-12-18T11:43:16;-1.40;99.90
13744;DHT22;6943;52.368;9.966;2022-12-18T11:46:08;-1.20;28.20
13744;DHT22;6943;52.368;9.966;2022-12-18T11:49:44;-1.10;1.00
13744;DHT22;6943;52.368;9.966;2022-12-18T11:52:00;-1.00;1.00
13744;DHT22;6943;52.368;9.966;2022-12-18T11:54:27;-1.00;1.00
13744;DHT22;6943;52.368;9.966;2022-12-18T12:11:07;-1.10;1.00
13744;DHT22;6943;52.368;9.966;2022-12-18T12:13:52;-1.00;1.00
13744;DHT22;6943;52.368;9.966;2022-12-18T12:16:50;-0.90;1.00
13744;DHT22;6943;52.368;9.966;2022-12-18T12:30:52;-1.00;1.00
13744;DHT22;6943;52.368;9.966;2022-12-18T12:33:52;-1.00;1.00
13744;DHT22;6943;52.368;9.966;2022-12-18T12:36:26;-1.10;1.00
13744;DHT22;6943;52.368;9.966;2022-12-18T12:38:59;-1.20;1.00
13744;DHT22;6943;52.368;9.966;2022-12-18T12:41:30;-1.30;1.00
13744;DHT22;6943;52.368;9.966;2022-12-18T12:44:29;-1.30;1.00
13744;DHT22;6943;52.368;9.966;2022-12-18T12:47:00;-1.30;1.00
13744;DHT22;6943;52.368;9.966;2022-12-18T12:49:31;-1.30;1.00
13744;DHT22;6943;52.368;9.966;2022-12-18T12:52:20;-1.30;1.00
13744;DHT22;6943;52.368;9.966;2022-12-18T12:54:48;-1.40;1.00
13744;DHT22;6943;52.368;9.966;2022-12-18T12:57:21;-1.40;1.00
13744;DHT22;6943;52.368;9.966;2022-12-18T13:00:18;-1.50;1.00
13744;DHT22;6943;52.368;9.966;2022-12-18T13:02:56;-1.60;27.90
13744;DHT22;6943;52.368;9.966;2022-12-18T13:05:43;-1.60;99.90
13744;DHT22;6943;52.368;9.966;2022-12-18T13:08:21;-1.70;99.90
13744;DHT22;6943;52.368;9.966;2022-12-18T13:10:48;-1.60;99.90
13744;DHT22;6943;52.368;9.966;2022-12-18T13:13:15;-1.70;99.90
13744;DHT22;6943;52.368;9.966;2022-12-18T13:15:43;-1.70;99.90
13744;DHT22;6943;52.368;9.966;2022-12-18T13:20:42;-1.90;1.00
13744;DHT22;6943;52.368;9.966;2022-12-18T13:30:51;-2.00;1.00
13744;DHT22;6943;52.368;9.966;2022-12-18T13:40:59;-2.20;1.00
13744;DHT22;6943;52.368;9.966;2022-12-18T13:46:00;-2.20;1.00
13744;DHT22;6943;52.368;9.966;2022-12-18T13:48:28;-2.20;1.00
13744;DHT22;6943;52.368;9.966;2022-12-18T13:51:00;-2.20;99.90
13744;DHT22;6943;52.368;9.966;2022-12-18T13:53:34;-2.20;1.00
13744;DHT22;6943;52.368;9.966;2022-12-18T13:56:02;-2.20;1.00
13744;DHT22;6943;52.368;9.966;2022-12-18T13:58:28;-2.20;1.00
13744;DHT22;6943;52.368;9.966;2022-12-18T14:00:53;-2.20;1.00
13744;DHT22;6943;52.368;9.966;2022-12-18T14:03:25;-2.30;1.00
13744;DHT22;6943;52.368;9.966;2022-12-18T14:05:59;-2.30;1.00
13744;DHT22;6943;52.368;9.966;2022-12-18T14:08:29;-2.30;1.00
13744;DHT22;6943;52.368;9.966;2022-12-18T14:10:57;-2.40;1.00
13744;DHT22;6943;52.368;9.966;2022-12-18T14:13:37;-2.50;1.00
13744;DHT22;6943;52.368;9.966;2022-12-18T14:16:06;-2.50;1.00
13744;DHT22;6943;52.368;9.966;2022-12-18T14:18:45;-2.60;99.90
13744;DHT22;6943;52.368;9.966;2022-12-18T14:21:30;-2.60;99.90
13744;DHT22;6943;52.368;9.966;2022-12-18T14:24:18;-2.60;99.90
13744;DHT22;6943;52.368;9.966;2022-12-18T14:26:45;-2.70;99.90
13744;DHT22;6943;52.368;9.966;2022-12-18T14:29:26;-2.70;1.00
13744;DHT22;6943;52.368;9.966;2022-12-18T14:34:51;-2.70;1.00
13744;DHT22;6943;52.368;9.966;2022-12-18T14:37:21;-2.80;1.00
13744;DHT22;6943;52.368;9.966;2022-12-18T14:39:55;-2.80;1.00
13744;DHT22;6943;52.368;9.966;2022-12-18T14:42:21;-2.80;1.00
13744;DHT22;6943;52.368;9.966;2022-12-18T14:44:47;-2.90;1.00
13744;DHT22;6943;52.368;9.966;2022-12-18T14:47:17;-2.90;1.00
13744;DHT22;6943;52.368;9.966;2022-12-18T14:49:43;-2.90;1.00
13744;DHT22;6943;52.368;9.966;2022-12-18T14:52:23;-3.00;1.00
13744;DHT22;6943;52.368;9.966;2022-12-18T14:54:50;-3.00;54.00
13744;DHT22;6943;52.368;9.966;2022-12-18T14:57:35;-3.00;99.90
13744;DHT22;6943;52.368;9.966;2022-12-18T15:00:19;-3.10;99.90
13744;DHT22;6943;52.368;9.966;2022-12-18T15:02:52;-3.10;99.90
13744;DHT22;6943;52.368;9.966;2022-12-18T15:05:27;-3.10;99.90
13744;DHT22;6943;52.368;9.966;2022-12-18T15:07:55;-3.10;99.90
13744;DHT22;6943;52.368;9.966;2022-12-18T15:10:24;-3.10;1.00
13744;DHT22;6943;52.368;9.966;2022-12-18T15:12:50;-3.10;1.00
13744;DHT22;6943;52.368;9.966;2022-12-18T15:18:03;-3.20;1.00
13744;DHT22;6943;52.368;9.966;2022-12-18T15:20:40;-3.20;1.00
13744;DHT22;6943;52.368;9.966;2022-12-18T15:23:23;-3.20;1.00
13744;DHT22;6943;52.368;9.966;2022-12-18T15:26:06;-3.30;1.00
13744;DHT22;6943;52.368;9.966;2022-12-18T15:31:04;-3.20;99.90
13744;DHT22;6943;52.368;9.966;2022-12-18T15:33:36;-3.20;99.90
13744;DHT22;6943;52.368;9.966;2022-12-18T15:36:05;-3.20;99.90
13744;DHT22;6943;52.368;9.966;2022-12-18T15:38:31;-3.20;99.90
13744;DHT22;6943;52.368;9.966;2022-12-18T15:40:57;-3.20;99.90
13744;DHT22;6943;52.368;9.966;2022-12-18T15:43:24;-3.20;99.90
13744;DHT22;6943;52.368;9.966;2022-12-18T15:46:04;-3.20;1.00
13744;DHT22;6943;52.368;9.966;2022-12-18T15:48:31;-3.20;1.00
13744;DHT22;6943;52.368;9.966;2022-12-18T15:50:57;-3.30;1.00
13744;DHT22;6943;52.368;9.966;2022-12-18T15:53:25;-3.30;1.00
13744;DHT22;6943;52.368;9.966;2022-12-18T15:55:50;-3.30;1.00
13744;DHT22;6943;52.368;9.966;2022-12-18T15:58:35;-3.30;1.00
13744;DHT22;6943;52.368;9.966;2022-12-18T16:01:01;-3.30;1.00
13744;DHT22;6943;52.368;9.966;2022-12-18T16:03:26;-3.30;1.00
13744;DHT22;6943;52.368;9.966;2022-12-18T16:05:53;-3.30;1.00
13744;DHT22;6943;52.368;9.966;2022-12-18T16:08:19;-3.30;1.00
13744;DHT22;6943;52.368;9.966;2022-12-18T16:10:44;-3.40;1.00
13744;DHT22;6943;52.368;9.966;2022-12-18T16:13:12;-3.40;99.90
13744;DHT22;6943;52.368;9.966;2022-12-18T16:15:39;-3.40;99.90
13744;DHT22;6943;52.368;9.966;2022-12-18T16:18:04;-3.30;99.90
13744;DHT22;6943;52.368;9.966;2022-12-18T16:22:58;-3.30;1.00
13744;DHT22;6943;52.368;9.966;2022-12-18T16:25:26;-3.10;1.00
13744;DHT22;6943;52.368;9.966;2022-12-18T16:27:52;-3.30;1.00
13744;DHT22;6943;52.368;9.966;2022-12-18T16:30:26;-3.20;1.00
13744;DHT22;6943;52.368;9.966;2022-12-18T16:32:53;-3.20;1.00
13744;DHT22;6943;52.368;9.966;2022-12-18T16:35:19;-3.10;99.90
13744;DHT22;6943;52.368;9.966;2022-12-18T16:37:45;-3.00;94.60
13744;DHT22;6943;52.368;9.966;2022-12-18T16:40:13;-2.90;1.00
13744;DHT22;6943;52.368;9.966;2022-12-18T16:42:41;-2.80;1.00
13744;DHT22;6943;52.368;9.966;2022-12-18T16:45:08;-2.80;1.00
13744;DHT22;6943;52.368;9.966;2022-12-18T16:47:34;-2.80;1.00
13744;DHT22;6943;52.368;9.966;2022-12-18T16:50:00;-2.70;99.90
13744;DHT22;6943;52.368;9.966;2022-12-18T16:52:26;-2.70;99.90
13744;DHT22;6943;52.368;9.966;2022-12-18T16:54:52;-2.70;99.90
13744;DHT22;6943;52.368;9.966;2022-12-18T16:57:19;-2.70;99.90
13744;DHT22;6943;52.368;9.966;2022-12-18T16:59:45;-2.70;99.90
13744;DHT22;6943;52.368;9.966;2022-12-18T17:02:22;-2.70;99.90
13744;DHT22;6943;52.368;9.966;2022-12-18T17:04:48;-2.70;99.90
13744;DHT22;6943;52.368;9.966;2022-12-18T17:07:14;-2.70;99.90
13744;DHT22;6943;52.368;9.966;2022-12-18T17:09:40;-2.70;99.90
13744;DHT22;6943;52.368;9.966;2022-12-18T17:12:06;-2.70;99.90
13744;DHT22;6943;52.368;9.966;2022-12-18T17:14:33;-2.70;99.90
13744;DHT22;6943;52.368;9.966;2022-12-18T17:16:59;-2.70;99.90
13744;DHT22;6943;52.368;9.966;2022-12-18T17:19:25;-2.70;99.90
13744;DHT22;6943;52.368;9.966;2022-12-18T17:21:51;-2.70;99.90
13744;DHT22;6943;52.368;9.966;2022-12-18T17:24:18;-2.60;99.90
13744;DHT22;6943;52.368;9.966;2022-12-18T17:26:44;-2.60;99.90
13744;DHT22;6943;52.368;9.966;2022-12-18T17:29:14;-2.60;99.90
13744;DHT22;6943;52.368;9.966;2022-12-18T17:31:39;-2.70;99.90
13744;DHT22;6943;52.368;9.966;2022-12-18T17:34:05;-2.80;99.90
13744;DHT22;6943;52.368;9.966;2022-12-18T17:36:31;-2.80;99.90
13744;DHT22;6943;52.368;9.966;2022-12-18T17:38:59;-2.80;99.90
13744;DHT22;6943;52.368;9.966;2022-12-18T17:41:26;-2.70;99.90